Latest Weather Observations for Cape Willoughby

IDS60801

Issued at 9:05 pm CST Saturday 19 April 2014 (issued every 30 minutes, with the page automatically refreshed every 10 minutes)

About weather observations | Map of weather stations | Latest weather observations for SA | Other Formats
Station Details ID: 022803 Name: CAPE WILLOUGHBY Lat: -35.84 Lon: 138.13 Height: 55.0 m
Data from the previous 72 hours. | See also: Recent months at Cape Willoughby
Date/Time
CST
Temp
°C
App
Temp
°C
Dew
Point
Rel
Hum
%
Delta-T
°C
Wind Press
QNH
hPa
Press
MSL
hPa
Rain
since 9 am
mm
Dir
 
Spd
km/h
Gust
km/h
Spd
kts
Gust
kts
19/09:00pm 15.0 13.8 9.6 70 2.8 NNW 6 7 3 4 1018.5 1018.5 0.0
19/08:30pm 15.1 14.3 9.5 69 2.9 N 4 7 2 4 1018.7 1018.7 0.0
19/08:00pm 15.1 13.7 9.0 67 3.1 NNE 6 7 3 4 1018.6 - 0.0
19/07:30pm 15.1 13.8 9.9 71 2.7 NNE 7 11 4 6 1018.6 1018.6 0.0
19/07:00pm 15.0 13.6 9.6 70 2.8 N 7 9 4 5 1018.7 - 0.0
19/06:30pm 15.1 13.2 9.0 67 3.1 NE 9 11 5 6 1018.6 1018.6 0.0
19/06:00pm 15.1 13.1 8.8 66 3.2 ENE 9 11 5 6 1018.7 1018.7 0.0
19/05:30pm 15.1 13.1 8.8 66 3.2 ENE 9 13 5 7 1018.6 1018.6 0.0
19/05:00pm 15.4 13.6 9.5 68 3.1 NE 9 13 5 7 1018.7 - 0.0
19/04:30pm 16.0 13.3 10.3 69 3.0 NNE 15 19 8 10 1018.7 1018.7 0.0
19/04:00pm 16.0 13.0 10.5 70 2.9 NNE 17 22 9 12 1019.1 - 0.0
19/03:30pm 16.1 12.5 10.0 67 3.2 NE 19 22 10 12 1019.1 1019.1 0.0
19/03:00pm 16.3 13.0 9.5 64 3.5 N 17 22 9 12 1019.3 1019.3 0.0
19/02:30pm 16.6 12.1 10.2 66 3.4 N 24 28 13 15 1019.3 1019.3 0.0
19/02:00pm 16.8 12.0 11.7 72 2.8 N 28 33 15 18 1019.4 - 0.0
19/01:30pm 16.8 15.4 9.7 63 3.7 E 7 17 4 9 1020.1 1020.0 0.0
19/01:00pm 16.6 14.6 7.3 54 4.6 SE 7 9 4 5 1020.5 - 0.0
19/12:30pm 16.9 14.8 6.7 51 5.0 SE 7 9 4 5 1021.0 1020.9 0.0
19/12:00pm 16.4 14.4 6.2 51 5.0 S 6 7 3 4 1021.5 1021.4 0.0
19/11:30am 16.7 14.6 6.5 51 5.0 SSE 7 11 4 6 1021.9 1021.8 0.0
19/11:00am 16.2 13.5 5.8 50 5.0 S 9 13 5 7 1022.1 - 0.0
19/10:30am 16.1 13.8 5.7 50 5.0 S 7 13 4 7 1022.5 1022.4 0.0
19/10:00am 16.0 14.1 4.7 47 5.3 W 4 7 2 4 1022.8 - 0.0
19/09:30am 15.8 13.4 4.5 47 5.3 W 6 9 3 5 1023.0 1022.9 0.0
19/09:00am 15.6 13.3 4.6 48 5.1 W 6 7 3 4 1023.1 1023.0 0.0
19/08:30am 15.4 12.5 4.8 49 5.0 NW 9 13 5 7 1023.1 1023.0 0.0
19/08:00am 15.2 12.8 5.1 51 4.8 NW 7 15 4 8 1022.8 - 0.0
19/07:30am 14.7 12.4 4.7 51 4.6 WNW 6 7 3 4 1022.6 1022.5 0.0
19/07:00am 14.1 10.5 5.2 55 4.2 WNW 13 15 7 8 1022.5 - 0.0
19/06:30am 14.0 11.6 5.4 56 4.0 W 7 11 4 6 1022.3 1022.2 0.0
19/06:00am 14.2 12.1 5.6 56 4.1 WSW 6 9 3 5 1022.3 1022.2 0.0
19/05:30am 14.2 11.9 5.8 57 4.0 WSW 7 9 4 5 1022.2 1022.1 0.0
19/05:00am 14.7 13.4 6.0 56 4.2 W 2 6 1 3 1022.3 - 0.0
19/04:30am 15.0 12.9 6.6 57 4.1 S 7 13 4 7 1022.2 1022.1 0.0
19/04:00am 15.1 13.1 6.9 58 4.0 S 7 11 4 6 1022.2 - 0.0
19/03:30am 15.0 12.1 6.6 57 4.1 S 11 15 6 8 1022.1 1022.0 0.0
19/03:00am 14.9 12.9 7.0 59 3.9 SSE 7 15 4 8 1022.2 1022.1 0.0
19/02:30am 14.8 13.1 7.6 62 3.6 SSE 6 9 3 5 1022.5 1022.4 0.0
19/02:00am 14.8 11.2 8.3 65 3.3 S 17 24 9 13 1022.6 - 0.0
19/01:30am 14.7 10.8 9.3 70 2.8 S 20 24 11 13 1022.8 1022.7 0.0
19/01:00am 14.7 10.3 8.9 68 3.0 S 22 26 12 14 1022.9 - 0.0
19/12:30am 15.1 11.6 8.8 66 3.2 S 17 24 9 13 1023.0 1022.9 0.0
19/12:00am 15.1 11.7 9.0 67 3.1 S 17 24 9 13 1023.0 1022.9 0.0
 
Date/Time
CST
Temp
°C
App
Temp
°C
Dew
Point
Rel
Hum
%
Delta-T
°C
Wind Press
QNH
hPa
Press
MSL
hPa
Rain
since 9 am
mm
Dir
 
Spd
km/h
Gust
km/h
Spd
kts
Gust
kts
18/11:30pm 15.2 11.4 8.9 66 3.2 S 19 24 10 13 1023.1 1023.0 0.0
18/11:00pm 15.3 11.6 10.3 72 2.6 SSE 20 28 11 15 1023.1 - 0.0
18/10:30pm 15.2 10.9 8.0 62 3.6 S 20 24 11 13 1023.4 1023.3 0.0
18/10:00pm 15.2 11.7 8.9 66 3.2 SSE 17 24 9 13 1023.7 - 0.0
18/09:30pm 15.3 12.3 9.2 67 3.1 S 15 22 8 12 1023.7 1023.6 0.0
18/09:00pm 15.3 12.6 8.8 65 3.3 SSE 13 19 7 10 1023.8 1023.7 0.0
18/08:30pm 15.3 11.7 8.5 64 3.4 S 17 24 9 13 1023.7 1023.6 0.0
18/08:00pm 15.3 11.9 9.0 66 3.2 S 17 24 9 13 1023.6 - 0.0
18/07:30pm 15.4 11.9 8.9 65 3.3 S 17 22 9 12 1023.5 1023.4 0.0
18/07:00pm 15.4 11.6 9.1 66 3.2 S 19 24 10 13 1023.2 - 0.0
18/06:30pm 15.4 11.2 8.4 63 3.5 S 20 26 11 14 1023.0 1022.9 0.0
18/06:00pm 15.4 11.6 7.7 60 3.8 S 17 22 9 12 1023.0 1022.9 0.0
18/05:30pm 15.4 10.6 7.4 59 4.0 S 22 28 12 15 1022.8 1022.7 0.0
18/05:00pm 15.7 11.5 8.4 62 3.7 S 20 28 11 15 1022.8 - 0.0
18/04:30pm 15.9 11.1 7.4 57 4.2 S 22 28 12 15 1022.6 1022.5 0.0
18/04:00pm 15.9 11.5 7.4 57 4.2 S 20 30 11 16 1022.6 - 0.0
18/03:30pm 16.0 10.9 7.7 58 4.1 S 24 32 13 17 1022.5 1022.4 0.0
18/03:00pm 16.2 10.4 7.9 58 4.2 S 28 35 15 19 1022.3 1022.2 0.0
18/02:30pm 16.2 10.2 6.9 54 4.6 S 28 33 15 18 1022.1 1022.0 0.0
18/02:00pm 16.3 11.1 7.3 55 4.5 S 24 35 13 19 1022.4 - 0.0
18/01:30pm 16.2 10.5 6.9 54 4.6 S 26 33 14 18 1022.3 1022.2 0.0
18/01:00pm 16.1 10.7 8.1 59 4.0 S 26 35 14 19 1022.3 - 0.0
18/12:30pm 16.1 10.5 8.8 62 3.7 S 28 37 15 20 1022.4 1022.3 0.0
18/12:00pm 16.3 10.9 9.5 64 3.5 S 28 37 15 20 1022.6 1022.5 0.0
18/11:30am 16.3 13.1 9.9 66 3.3 S 17 28 9 15 1022.7 1022.6 0.0
18/11:00am 16.6 12.8 9.1 61 3.9 S 19 32 10 17 1022.8 - 0.0
18/10:30am 16.5 12.2 7.7 56 4.4 S 20 33 11 18 1022.5 1022.4 0.0
18/10:00am 16.3 11.2 7.5 56 4.4 S 24 35 13 19 1022.2 - 0.0
18/09:30am 16.3 10.9 7.8 57 4.3 S 26 37 14 20 1022.0 1021.9 0.0
18/09:00am 16.0 9.6 8.5 61 3.8 S 32 46 17 25 1021.5 1021.4 0.4
18/08:30am 16.3 10.0 11.2 72 2.7 S 35 50 19 27 1021.2 1021.1 0.4
18/08:00am 16.0 8.7 11.6 75 2.4 S 41 54 22 29 1020.5 - 0.4
18/07:30am 16.3 10.4 11.2 72 2.7 S 33 48 18 26 1020.0 1019.9 0.4
18/07:00am 16.1 8.5 12.5 79 2.0 SSW 44 54 24 29 1019.3 - 0.4
18/06:30am 16.0 9.6 13.3 84 1.5 SSW 39 48 21 26 1019.2 1019.2 0.4
18/06:00am 15.6 10.8 14.0 90 0.9 SSW 32 39 17 21 1019.1 1019.1 0.4
18/05:30am 15.7 11.1 14.6 93 0.6 SW 32 39 17 21 1018.8 1018.8 0.2
18/05:00am 15.7 11.7 14.2 91 0.9 W 28 41 15 22 1018.6 - 0.0
18/04:30am 16.1 12.7 13.8 86 1.3 WNW 24 30 13 16 1018.2 1018.2 0.0
18/04:00am 15.7 12.2 13.5 87 1.2 WNW 24 32 13 17 1018.1 - 0.0
18/03:30am 15.3 11.5 13.5 89 1.0 WNW 26 32 14 17 1018.0 1018.0 0.0
18/03:00am 14.9 10.9 13.1 89 1.0 WNW 26 32 14 17 1018.0 1018.0 0.0
18/02:30am 15.1 12.5 13.3 89 1.0 WNW 19 24 10 13 1018.2 1018.2 0.0
18/02:00am 15.6 12.5 13.4 87 1.2 W 22 30 12 16 1018.4 - 0.0
18/01:30am 16.0 12.9 13.3 84 1.5 W 22 33 12 18 1018.3 1018.3 0.0
18/01:00am 16.6 13.7 13.9 84 1.5 W 22 32 12 17 1018.4 - 0.0
18/12:30am 17.1 14.4 14.6 85 1.4 W 22 30 12 16 1018.4 1018.4 0.0
18/12:00am 17.3 14.4 15.1 87 1.3 WNW 24 32 13 17 1018.3 1018.3 0.0
 
Date/Time
CST
Temp
°C
App
Temp
°C
Dew
Point
Rel
Hum
%
Delta-T
°C
Wind Press
QNH
hPa
Press
MSL
hPa
Rain
since 9 am
mm
Dir
 
Spd
km/h
Gust
km/h
Spd
kts
Gust
kts
17/11:30pm 17.0 14.7 14.6 86 1.4 NW 20 26 11 14 1018.2 1018.2 0.0
17/11:00pm 17.5 15.4 15.3 87 1.3 NNW 20 22 11 12 1018.4 - 0.0
17/10:30pm 17.4 15.4 15.6 89 1.1 NNW 20 26 11 14 1018.6 1018.6 0.0
17/10:00pm 17.2 15.7 15.4 89 1.1 NW 17 22 9 12 1019.0 - 0.0
17/09:30pm 17.2 15.3 15.2 88 1.2 NW 19 22 10 12 1019.4 1019.4 0.0
17/09:00pm 16.9 15.0 15.1 89 1.0 NW 19 22 10 12 1019.2 1019.2 0.0
17/08:30pm 17.1 16.0 15.3 89 1.0 NNW 15 19 8 10 1019.1 1019.1 0.0
17/08:00pm 17.6 15.8 15.6 88 1.2 NNW 19 24 10 13 1019.0 - 0.0
17/07:30pm 17.7 15.8 15.3 86 1.4 NNW 19 22 10 12 1018.9 1018.9 0.0
17/07:00pm 17.8 15.7 15.1 84 1.6 NNW 20 26 11 14 1018.7 - 0.0
17/06:30pm 17.9 15.0 15.0 83 1.7 NNW 24 32 13 17 1018.5 1018.5 0.0
17/06:00pm 17.9 15.5 14.4 80 2.0 NNW 20 28 11 15 1018.4 1018.4 0.0
17/05:30pm 18.2 15.2 14.9 81 1.9 NNW 24 30 13 16 1018.4 1018.4 0.0
17/05:00pm 18.7 14.9 14.8 78 2.3 NNW 28 37 15 20 1018.2 - 0.0
17/04:30pm 19.4 16.5 15.1 76 2.5 NNW 24 32 13 17 1018.3 1018.3 0.0
17/04:00pm 19.6 15.5 15.0 75 2.7 N 30 35 16 19 1018.3 - 0.0
17/03:30pm 20.2 16.7 15.4 74 2.8 N 28 33 15 18 1018.5 1018.5 0.0
17/03:00pm 20.2 16.2 15.2 73 2.9 N 30 37 16 20 1018.7 1018.7 0.0
17/02:30pm 20.2 16.6 15.2 73 2.9 N 28 32 15 17 1018.9 1018.9 0.0
17/02:00pm 20.6 16.6 15.2 71 3.2 N 30 35 16 19 1019.1 - 0.0
17/01:30pm 20.7 16.7 15.3 71 3.2 N 30 35 16 19 1019.3 1019.3 0.0
17/01:00pm 20.6 17.1 15.4 72 3.1 N 28 33 15 18 1019.7 - 0.0
17/12:30pm 20.6 16.3 15.4 72 3.1 N 32 37 17 20 1020.2 1020.1 0.0
17/12:00pm 19.3 14.9 14.1 72 3.0 NNW 30 33 16 18 1020.8 1020.7 0.0
17/11:30am 20.5 18.8 14.6 69 3.4 NNW 17 28 9 15 1021.3 1021.2 0.0
17/11:00am 20.2 17.9 14.6 70 3.3 N 20 24 11 13 1021.5 - 0.0
17/10:30am 19.0 18.4 14.5 75 2.6 NNE 11 19 6 10 1021.5 1021.4 0.0
17/10:00am 17.8 17.6 12.9 73 2.7 E 6 7 3 4 1021.6 - 0.0
17/09:30am 17.6 17.8 12.9 74 2.6 E 4 6 2 3 1021.5 1021.4 0.0
17/09:00am 17.4 18.0 13.1 76 2.4 WSW 2 4 1 2 1021.4 1021.3 0.0
17/08:30am 16.5 17.0 12.8 79 2.1 WSW 2 4 1 2 1021.2 1021.1 0.0
17/08:00am 16.0 16.5 12.9 82 1.7 WSW 2 4 1 2 1021.0 - 0.0
17/07:30am 15.4 15.4 12.5 83 1.6 WSW 4 4 2 2 1020.6 1020.5 0.0
17/07:00am 15.0 14.6 12.3 84 1.5 WSW 6 7 3 4 1020.2 - 0.0
17/06:30am 14.4 13.2 11.7 84 1.4 WSW 9 9 5 5 1020.3 1020.2 0.0
17/06:00am 14.5 13.6 12.5 88 1.1 WSW 9 11 5 6 1020.1 1020.0 0.0
17/05:30am 14.4 13.2 12.8 90 0.9 WSW 11 13 6 7 1020.0 1019.9 0.0
17/05:00am 14.3 13.2 13.0 92 0.7 W 11 15 6 8 1020.1 - 0.0
17/04:30am 14.2 12.7 13.1 93 0.6 WNW 13 13 7 7 1020.1 1020.0 0.0
17/04:00am 14.4 13.3 13.1 92 0.7 WNW 11 13 6 7 1019.6 - 0.0
17/03:30am 15.2 14.2 13.4 89 1.0 WNW 11 13 6 7 1019.4 1019.4 0.0
17/03:00am 15.4 15.1 13.4 88 1.1 WSW 7 9 4 5 1019.4 1019.4 0.0
17/02:30am 16.3 16.2 14.0 86 1.3 WSW 7 9 4 5 1019.7 1019.7 0.0
17/02:00am 16.4 15.6 13.9 85 1.4 W 11 17 6 9 1020.0 - 0.0
17/01:30am 16.5 15.7 14.0 85 1.4 W 11 17 6 9 1020.1 1020.0 0.0
17/01:00am 16.3 15.0 13.8 85 1.4 W 13 19 7 10 1020.0 - 0.0
17/12:30am 16.0 14.7 12.6 80 1.9 WNW 11 15 6 8 1020.0 1019.9 0.0
17/12:00am 16.5 15.0 13.0 80 1.9 NW 13 15 7 8 1020.0 1019.9 0.0
 
Date/Time
CST
Temp
°C
App
Temp
°C
Dew
Point
Rel
Hum
%
Delta-T
°C
Wind Press
QNH
hPa
Press
MSL
hPa
Rain
since 9 am
mm
Dir
 
Spd
km/h
Gust
km/h
Spd
kts
Gust
kts
16/11:30pm 16.6 16.3 13.3 81 1.8 NNW 7 9 4 5 1020.2 1020.1 0.0
16/11:00pm 16.2 15.1 13.1 82 1.7 NNW 11 13 6 7 1020.3 - 0.0
16/10:30pm 15.9 14.6 12.6 81 1.8 NNW 11 13 6 7 1020.2 1020.1 0.0
16/10:00pm 15.7 15.2 12.5 81 1.8 NNW 7 9 4 5 1020.3 - 0.0
16/09:30pm 16.4 16.7 13.3 82 1.7 W 4 6 2 3 1020.3 1020.2 0.0

Other Formats:

Comma delimited format used in spreadsheet applications
http://www.bom.gov.au/fwo/IDS60801/IDS60801.94822.axf

JavaScript Object Notation format (JSON) in row-major order
http://www.bom.gov.au/fwo/IDS60801/IDS60801.94822.json